sensor_id;sensor_type;location;lat;lon;timestamp;pressure;altitude;pressure_sealevel;temperature;humidity
54546;BME280;40444;45.184;9.850;2023-02-03T00:00:07;101762.09;;;6.56;100.00
54546;BME280;40444;45.184;9.850;2023-02-03T00:02:38;101756.44;;;6.63;100.00
54546;BME280;40444;45.184;9.850;2023-02-03T00:05:07;101761.22;;;6.56;100.00
54546;BME280;40444;45.184;9.850;2023-02-03T00:07:37;101754.19;;;6.55;100.00
54546;BME280;40444;45.184;9.850;2023-02-03T00:10:06;101742.66;;;6.54;100.00
54546;BME280;40444;45.184;9.850;2023-02-03T00:12:35;101744.38;;;6.55;100.00
54546;BME280;40444;45.184;9.850;2023-02-03T00:15:03;101748.16;;;6.51;100.00
54546;BME280;40444;45.184;9.850;2023-02-03T00:17:32;101752.38;;;6.55;100.00
54546;BME280;40444;45.184;9.850;2023-02-03T00:20:00;101749.72;;;6.55;100.00
54546;BME280;40444;45.184;9.850;2023-02-03T00:22:29;101742.66;;;6.54;100.00
54546;BME280;40444;45.184;9.850;2023-02-03T00:24:57;101745.59;;;6.50;100.00
54546;BME280;40444;45.184;9.850;2023-02-03T00:27:27;101752.59;;;6.35;100.00
54546;BME280;40444;45.184;9.850;2023-02-03T00:29:55;101753.47;;;6.36;100.00
54546;BME280;40444;45.184;9.850;2023-02-03T00:32:24;101753.06;;;6.43;100.00
54546;BME280;40444;45.184;9.850;2023-02-03T00:34:53;101759.47;;;6.39;100.00
54546;BME280;40444;45.184;9.850;2023-02-03T00:37:21;101761.19;;;6.40;100.00
54546;BME280;40444;45.184;9.850;2023-02-03T00:39:50;101760.09;;;6.44;100.00
54546;BME280;40444;45.184;9.850;2023-02-03T00:42:18;101769.19;;;6.40;100.00
54546;BME280;40444;45.184;9.850;2023-02-03T00:44:47;101766.16;;;6.30;100.00
54546;BME280;40444;45.184;9.850;2023-02-03T00:47:15;101771.53;;;6.29;100.00
54546;BME280;40444;45.184;9.850;2023-02-03T00:49:43;101783.28;;;6.25;100.00
54546;BME280;40444;45.184;9.850;2023-02-03T00:52:11;101787.13;;;6.19;100.00
54546;BME280;40444;45.184;9.850;2023-02-03T00:54:40;101791.69;;;6.17;100.00
54546;BME280;40444;45.184;9.850;2023-02-03T00:57:08;101794.50;;;6.14;100.00
54546;BME280;40444;45.184;9.850;2023-02-03T00:59:38;101802.88;;;6.06;100.00
54546;BME280;40444;45.184;9.850;2023-02-03T01:02:06;101801.78;;;5.93;99.29
54546;BME280;40444;45.184;9.850;2023-02-03T01:04:35;101806.44;;;5.88;100.00
54546;BME280;40444;45.184;9.850;2023-02-03T01:07:03;101793.38;;;5.83;100.00
54546;BME280;40444;45.184;9.850;2023-02-03T01:09:36;101801.44;;;5.82;100.00
54546;BME280;40444;45.184;9.850;2023-02-03T01:12:05;101801.44;;;5.82;100.00
54546;BME280;40444;45.184;9.850;2023-02-03T01:14:33;101804.88;;;5.84;100.00
54546;BME280;40444;45.184;9.850;2023-02-03T01:17:03;101815.53;;;5.84;100.00
54546;BME280;40444;45.184;9.850;2023-02-03T01:19:32;101811.38;;;5.78;100.00
54546;BME280;40444;45.184;9.850;2023-02-03T01:22:00;101813.50;;;5.72;100.00
54546;BME280;40444;45.184;9.850;2023-02-03T01:24:29;101818.97;;;5.69;100.00
54546;BME280;40444;45.184;9.850;2023-02-03T01:26:58;101818.38;;;5.62;100.00
54546;BME280;40444;45.184;9.850;2023-02-03T01:29:27;101824.78;;;5.58;100.00
54546;BME280;40444;45.184;9.850;2023-02-03T01:31:56;101826.03;;;5.51;100.00
54546;BME280;40444;45.184;9.850;2023-02-03T01:34:24;101835.47;;;5.39;100.00
54546;BME280;40444;45.184;9.850;2023-02-03T01:36:53;101843.75;;;5.14;100.00
54546;BME280;40444;45.184;9.850;2023-02-03T01:39:21;101837.38;;;5.18;100.00
54546;BME280;40444;45.184;9.850;2023-02-03T01:41:49;101835.19;;;5.26;100.00
54546;BME280;40444;45.184;9.850;2023-02-03T01:44:41;101828.88;;;5.29;100.00
54546;BME280;40444;45.184;9.850;2023-02-03T01:49:59;101826.13;;;5.30;100.00
54546;BME280;40444;45.184;9.850;2023-02-03T01:52:30;101831.44;;;5.30;100.00
54546;BME280;40444;45.184;9.850;2023-02-03T01:55:02;101833.13;;;5.33;100.00
54546;BME280;40444;45.184;9.850;2023-02-03T01:57:46;101830.38;;;5.35;100.00
54546;BME280;40444;45.184;9.850;2023-02-03T02:00:17;101827.81;;;5.33;100.00
54546;BME280;40444;45.184;9.850;2023-02-03T02:02:46;101818.97;;;5.32;100.00
54546;BME280;40444;45.184;9.850;2023-02-03T02:05:31;101818.97;;;5.32;100.00
54546;BME280;40444;45.184;9.850;2023-02-03T02:08:01;101812.72;;;5.33;100.00
54546;BME280;40444;45.184;9.850;2023-02-03T02:10:31;101810.81;;;5.36;100.00
54546;BME280;40444;45.184;9.850;2023-02-03T02:13:02;101816.94;;;5.38;100.00
54546;BME280;40444;45.184;9.850;2023-02-03T02:15:47;101821.31;;;5.39;100.00
54546;BME280;40444;45.184;9.850;2023-02-03T02:18:35;101821.22;;;5.40;100.00
54546;BME280;40444;45.184;9.850;2023-02-03T02:24:06;101824.69;;;5.42;100.00
54546;BME280;40444;45.184;9.850;2023-02-03T02:38:46;101802.25;;;4.93;100.00
54546;BME280;40444;45.184;9.850;2023-02-03T02:44:03;101797.72;;;4.76;100.00
54546;BME280;40444;45.184;9.850;2023-02-03T02:46:45;101810.78;;;4.80;100.00
54546;BME280;40444;45.184;9.850;2023-02-03T02:49:20;101826.84;;;4.77;100.00
54546;BME280;40444;45.184;9.850;2023-02-03T02:51:52;101828.72;;;4.75;100.00
54546;BME280;40444;45.184;9.850;2023-02-03T02:54:24;101832.53;;;4.70;100.00
54546;BME280;40444;45.184;9.850;2023-02-03T02:56:59;101832.97;;;4.61;100.00
54546;BME280;40444;45.184;9.850;2023-02-03T02:59:30;101830.34;;;4.59;100.00
54546;BME280;40444;45.184;9.850;2023-02-03T03:01:59;101830.56;;;4.54;100.00
54546;BME280;40444;45.184;9.850;2023-02-03T03:04:30;101839.78;;;4.46;100.00
54546;BME280;40444;45.184;9.850;2023-02-03T03:07:04;101841.94;;;4.38;100.00
54546;BME280;40444;45.184;9.850;2023-02-03T03:09:39;101835.25;;;4.29;100.00
54546;BME280;40444;45.184;9.850;2023-02-03T03:12:22;101837.28;;;4.22;100.00
54546;BME280;40444;45.184;9.850;2023-02-03T03:15:01;101837.41;;;4.19;100.00
54546;BME280;40444;45.184;9.850;2023-02-03T03:17:41;101838.31;;;4.20;100.00
54546;BME280;40444;45.184;9.850;2023-02-03T03:20:21;101842.66;;;4.21;100.00
54546;BME280;40444;45.184;9.850;2023-02-03T03:23:02;101835.56;;;4.21;100.00
54546;BME280;40444;45.184;9.850;2023-02-03T03:25:40;101838.53;;;4.14;100.00
54546;BME280;40444;45.184;9.850;2023-02-03T03:28:17;101845.19;;;4.03;100.00
54546;BME280;40444;45.184;9.850;2023-02-03T03:30:47;101842.59;;;4.02;100.00
54546;BME280;40444;45.184;9.850;2023-02-03T03:33:16;101843.47;;;4.02;100.00
54546;BME280;40444;45.184;9.850;2023-02-03T03:38:25;101834.28;;;3.89;100.00
54546;BME280;40444;45.184;9.850;2023-02-03T03:43:58;101837.84;;;3.68;100.00
54546;BME280;40444;45.184;9.850;2023-02-03T03:46:36;101836.97;;;3.67;100.00
54546;BME280;40444;45.184;9.850;2023-02-03T03:49:07;101841.28;;;3.70;100.00
54546;BME280;40444;45.184;9.850;2023-02-03T03:51:54;101842.09;;;3.72;100.00
54546;BME280;40444;45.184;9.850;2023-02-03T03:54:25;101848.19;;;3.74;100.00
54546;BME280;40444;45.184;9.850;2023-02-03T03:57:02;101846.25;;;3.77;100.00
54546;BME280;40444;45.184;9.850;2023-02-03T03:59:36;101848.13;;;3.75;100.00
54546;BME280;40444;45.184;9.850;2023-02-03T04:02:06;101842.81;;;3.75;100.00
54546;BME280;40444;45.184;9.850;2023-02-03T04:04:36;101842.81;;;3.75;100.00
54546;BME280;40444;45.184;9.850;2023-02-03T04:07:06;101849.03;;;3.74;100.00
54546;BME280;40444;45.184;9.850;2023-02-03T04:09:35;101843.06;;;3.69;100.00
54546;BME280;40444;45.184;9.850;2023-02-03T04:12:04;101845.13;;;3.63;100.00
54546;BME280;40444;45.184;9.850;2023-02-03T04:14:35;101850.72;;;3.55;100.00
54546;BME280;40444;45.184;9.850;2023-02-03T04:17:05;101851.19;;;3.43;100.00
54546;BME280;40444;45.184;9.850;2023-02-03T04:19:34;101859.47;;;3.35;100.00
54546;BME280;40444;45.184;9.850;2023-02-03T04:22:02;101871.16;;;3.29;100.00
54546;BME280;40444;45.184;9.850;2023-02-03T04:24:30;101857.22;;;3.24;100.00
54546;BME280;40444;45.184;9.850;2023-02-03T04:26:59;101857.34;;;3.21;100.00
54546;BME280;40444;45.184;9.850;2023-02-03T04:29:30;101862.03;;;3.15;100.00
54546;BME280;40444;45.184;9.850;2023-02-03T04:31:59;101864.06;;;3.08;100.00
54546;BME280;40444;45.184;9.850;2023-02-03T04:34:28;101868.44;;;3.09;100.00
54546;BME280;40444;45.184;9.850;2023-02-03T04:36:56;101871.88;;;3.11;100.00
54546;BME280;40444;45.184;9.850;2023-02-03T04:39:25;101867.38;;;3.13;100.00
54546;BME280;40444;45.184;9.850;2023-02-03T04:41:53;101869.03;;;3.16;100.00
54546;BME280;40444;45.184;9.850;2023-02-03T04:44:21;101861.09;;;3.16;100.00
54546;BME280;40444;45.184;9.850;2023-02-03T04:46:49;101859.31;;;3.16;100.00
54546;BME280;40444;45.184;9.850;2023-02-03T04:49:18;101860.22;;;3.15;100.00
54546;BME280;40444;45.184;9.850;2023-02-03T04:51:49;101859.09;;;3.22;100.00
54546;BME280;40444;45.184;9.850;2023-02-03T04:54:18;101860.81;;;3.23;100.00
54546;BME280;40444;45.184;9.850;2023-02-03T04:56:46;101870.47;;;3.24;100.00
54546;BME280;40444;45.184;9.850;2023-02-03T04:59:14;101855.41;;;3.26;100.00
54546;BME280;40444;45.184;9.850;2023-02-03T05:01:43;101850.97;;;3.27;100.00
54546;BME280;40444;45.184;9.850;2023-02-03T05:04:11;101837.75;;;3.25;100.00
54546;BME280;40444;45.184;9.850;2023-02-03T05:06:40;101831.66;;;3.23;100.00
54546;BME280;40444;45.184;9.850;2023-02-03T05:09:08;101829.19;;;3.19;100.00
54546;BME280;40444;45.184;9.850;2023-02-03T05:11:37;101830.00;;;3.21;100.00
54546;BME280;40444;45.184;9.850;2023-02-03T05:14:06;101844.22;;;3.18;100.00
54546;BME280;40444;45.184;9.850;2023-02-03T05:16:34;101847.75;;;3.19;100.00
54546;BME280;40444;45.184;9.850;2023-02-03T05:19:03;101840.66;;;3.19;100.00
54546;BME280;40444;45.184;9.850;2023-02-03T05:21:31;101847.63;;;3.22;100.00
54546;BME280;40444;45.184;9.850;2023-02-03T05:24:00;101843.97;;;3.24;100.00
54546;BME280;40444;45.184;9.850;2023-02-03T05:26:30;101845.69;;;3.25;100.00
54546;BME280;40444;45.184;9.850;2023-02-03T05:28:59;101837.75;;;3.25;100.00
54546;BME280;40444;45.184;9.850;2023-02-03T05:31:27;101835.06;;;3.27;100.00
54546;BME280;40444;45.184;9.850;2023-02-03T05:33:56;101839.38;;;3.29;100.00
54546;BME280;40444;45.184;9.850;2023-02-03T05:36:24;101831.97;;;3.38;100.00
54546;BME280;40444;45.184;9.850;2023-02-03T05:38:52;101845.97;;;3.41;100.00
54546;BME280;40444;45.184;9.850;2023-02-03T05:41:21;101843.13;;;3.46;100.00
54546;BME280;40444;45.184;9.850;2023-02-03T05:44:08;101854.66;;;3.45;100.00
54546;BME280;40444;45.184;9.850;2023-02-03T05:46:36;101869.00;;;3.39;100.00
54546;BME280;40444;45.184;9.850;2023-02-03T05:49:04;101868.66;;;3.26;100.00
54546;BME280;40444;45.184;9.850;2023-02-03T05:51:33;101875.09;;;3.19;100.00
54546;BME280;40444;45.184;9.850;2023-02-03T05:54:01;101875.25;;;3.15;100.00
54546;BME280;40444;45.184;9.850;2023-02-03T05:56:30;101881.34;;;3.17;100.00
54546;BME280;40444;45.184;9.850;2023-02-03T05:58:58;101883.38;;;3.10;100.00
54546;BME280;40444;45.184;9.850;2023-02-03T06:01:26;101885.44;;;3.02;100.00
54546;BME280;40444;45.184;9.850;2023-02-03T06:03:55;101888.75;;;3.09;100.00
54546;BME280;40444;45.184;9.850;2023-02-03T06:06:25;101904.81;;;3.04;100.00
54546;BME280;40444;45.184;9.850;2023-02-03T06:09:04;101913.97;;;2.95;100.00
54546;BME280;40444;45.184;9.850;2023-02-03T06:11:33;101921.22;;;2.90;100.00
54546;BME280;40444;45.184;9.850;2023-02-03T06:14:03;101924.81;;;2.88;100.00
54546;BME280;40444;45.184;9.850;2023-02-03T06:16:32;101939.88;;;2.86;100.00
54546;BME280;40444;45.184;9.850;2023-02-03T06:19:00;101932.72;;;2.64;100.00
54546;BME280;40444;45.184;9.850;2023-02-03T06:21:28;101932.28;;;2.51;100.00
54546;BME280;40444;45.184;9.850;2023-02-03T06:23:57;101915.44;;;2.54;100.00
54546;BME280;40444;45.184;9.850;2023-02-03T06:26:26;101913.59;;;2.56;100.00
54546;BME280;40444;45.184;9.850;2023-02-03T06:28:54;101909.56;;;2.46;100.00
54546;BME280;40444;45.184;9.850;2023-02-03T06:31:22;101905.50;;;2.36;100.00
54546;BME280;40444;45.184;9.850;2023-02-03T06:33:51;101900.41;;;2.30;100.00
54546;BME280;40444;45.184;9.850;2023-02-03T06:36:19;101893.09;;;2.38;100.00
54546;BME280;40444;45.184;9.850;2023-02-03T06:38:47;101896.38;;;2.44;100.00
54546;BME280;40444;45.184;9.850;2023-02-03T06:41:16;101891.63;;;2.29;100.00
54546;BME280;40444;45.184;9.850;2023-02-03T06:43:45;101882.53;;;2.36;100.00
54546;BME280;40444;45.184;9.850;2023-02-03T06:46:13;101899.88;;;2.45;100.00
54546;BME280;40444;45.184;9.850;2023-02-03T06:48:41;101920.47;;;2.37;100.00
54546;BME280;40444;45.184;9.850;2023-02-03T06:51:10;101905.47;;;2.37;100.00
54546;BME280;40444;45.184;9.850;2023-02-03T06:53:41;101901.06;;;2.36;100.00
54546;BME280;40444;45.184;9.850;2023-02-03T06:56:10;101914.28;;;2.36;100.00
54546;BME280;40444;45.184;9.850;2023-02-03T06:58:38;101911.47;;;2.41;100.00
54546;BME280;40444;45.184;9.850;2023-02-03T07:01:07;101923.69;;;2.45;100.00
54546;BME280;40444;45.184;9.850;2023-02-03T07:03:35;101932.44;;;2.47;100.00
54546;BME280;40444;45.184;9.850;2023-02-03T07:06:04;101932.44;;;2.47;100.00
54546;BME280;40444;45.184;9.850;2023-02-03T07:08:32;101936.81;;;2.48;100.00
54546;BME280;40444;45.184;9.850;2023-02-03T07:11:01;101955.25;;;2.51;100.00
54546;BME280;40444;45.184;9.850;2023-02-03T07:13:29;101966.16;;;2.40;100.00
54546;BME280;40444;45.184;9.850;2023-02-03T07:15:57;101977.44;;;2.20;100.00
54546;BME280;40444;45.184;9.850;2023-02-03T07:18:26;101988.25;;;2.13;100.00
54546;BME280;40444;45.184;9.850;2023-02-03T07:21:14;102019.63;;;1.95;100.00
54546;BME280;40444;45.184;9.850;2023-02-03T07:23:45;102023.13;;;1.96;100.00
54546;BME280;40444;45.184;9.850;2023-02-03T07:26:15;102005.25;;;2.04;100.00
54546;BME280;40444;45.184;9.850;2023-02-03T07:28:44;101984.81;;;2.11;100.00
54546;BME280;40444;45.184;9.850;2023-02-03T07:31:13;101982.66;;;2.22;100.00
54546;BME280;40444;45.184;9.850;2023-02-03T07:33:41;101967.63;;;2.24;100.00
54546;BME280;40444;45.184;9.850;2023-02-03T07:36:10;101974.16;;;2.39;100.00
54546;BME280;40444;45.184;9.850;2023-02-03T07:38:39;101981.72;;;2.49;100.00
54546;BME280;40444;45.184;9.850;2023-02-03T07:41:07;101999.81;;;2.37;100.00
54546;BME280;40444;45.184;9.850;2023-02-03T07:43:36;101997.72;;;2.46;100.00
54546;BME280;40444;45.184;9.850;2023-02-03T07:46:05;102006.53;;;2.47;100.00
54546;BME280;40444;45.184;9.850;2023-02-03T07:48:33;101997.59;;;2.49;100.00
54546;BME280;40444;45.184;9.850;2023-02-03T07:51:02;101999.94;;;2.59;100.00
54546;BME280;40444;45.184;9.850;2023-02-03T07:53:31;101995.09;;;2.71;100.00
54546;BME280;40444;45.184;9.850;2023-02-03T07:56:00;102006.19;;;2.83;100.00
54546;BME280;40444;45.184;9.850;2023-02-03T07:58:31;102027.38;;;2.83;100.00
54546;BME280;40444;45.184;9.850;2023-02-03T08:00:59;102032.44;;;2.89;100.00
54546;BME280;40444;45.184;9.850;2023-02-03T08:03:28;102039.25;;;2.96;100.00
54546;BME280;40444;45.184;9.850;2023-02-03T08:05:58;102048.88;;;2.98;100.00
54546;BME280;40444;45.184;9.850;2023-02-03T08:08:27;102040.22;;;3.18;100.00
54546;BME280;40444;45.184;9.850;2023-02-03T08:10:55;102041.38;;;3.35;100.00
54546;BME280;40444;45.184;9.850;2023-02-03T08:13:23;102044.19;;;3.55;100.00
54546;BME280;40444;45.184;9.850;2023-02-03T08:15:52;102054.88;;;3.52;100.00
54546;BME280;40444;45.184;9.850;2023-02-03T08:18:20;102045.38;;;3.70;100.00
54546;BME280;40444;45.184;9.850;2023-02-03T08:20:50;102033.47;;;3.82;100.00
54546;BME280;40444;45.184;9.850;2023-02-03T08:23:18;102043.81;;;3.88;100.00
54546;BME280;40444;45.184;9.850;2023-02-03T08:25:53;102038.50;;;3.88;100.00
54546;BME280;40444;45.184;9.850;2023-02-03T08:28:21;102041.81;;;3.94;100.00
54546;BME280;40444;45.184;9.850;2023-02-03T08:30:50;102040.41;;;4.08;100.00
54546;BME280;40444;45.184;9.850;2023-02-03T08:33:19;102032.94;;;4.17;100.00
54546;BME280;40444;45.184;9.850;2023-02-03T08:35:49;102027.25;;;4.26;100.00
54546;BME280;40444;45.184;9.850;2023-02-03T08:38:17;102024.22;;;4.36;100.00
54546;BME280;40444;45.184;9.850;2023-02-03T08:40:46;102012.72;;;4.57;100.00
54546;BME280;40444;45.184;9.850;2023-02-03T08:43:14;102018.44;;;4.68;100.00
54546;BME280;40444;45.184;9.850;2023-02-03T08:45:43;102022.06;;;4.88;100.00
54546;BME280;40444;45.184;9.850;2023-02-03T08:48:11;102020.19;;;4.90;100.00
54546;BME280;40444;45.184;9.850;2023-02-03T08:50:41;102023.69;;;5.11;100.00
54546;BME280;40444;45.184;9.850;2023-02-03T08:53:11;102024.03;;;5.23;100.00
54546;BME280;40444;45.184;9.850;2023-02-03T08:55:40;102028.97;;;5.31;100.00
54546;BME280;40444;45.184;9.850;2023-02-03T08:58:08;102024.25;;;5.38;100.00
54546;BME280;40444;45.184;9.850;2023-02-03T09:00:37;102021.47;;;5.41;100.00
54546;BME280;40444;45.184;9.850;2023-02-03T09:03:06;102036.50;;;5.42;100.00
54546;BME280;40444;45.184;9.850;2023-02-03T09:05:35;102028.09;;;5.51;100.00
54546;BME280;40444;45.184;9.850;2023-02-03T09:08:03;102023.22;;;5.61;100.00
54546;BME280;40444;45.184;9.850;2023-02-03T09:10:32;102033.63;;;5.65;100.00
54546;BME280;40444;45.184;9.850;2023-02-03T09:13:00;102029.69;;;5.55;100.00
54546;BME280;40444;45.184;9.850;2023-02-03T09:15:29;102034.28;;;5.70;100.00
54546;BME280;40444;45.184;9.850;2023-02-03T09:17:57;102035.53;;;5.82;100.00
54546;BME280;40444;45.184;9.850;2023-02-03T09:20:25;102039.34;;;5.95;100.00
54546;BME280;40444;45.184;9.850;2023-02-03T09:22:57;102040.34;;;6.12;100.00
54546;BME280;40444;45.184;9.850;2023-02-03T09:25:38;102033.44;;;6.26;100.00
54546;BME280;40444;45.184;9.850;2023-02-03T09:28:13;102040.19;;;6.51;100.00
54546;BME280;40444;45.184;9.850;2023-02-03T09:30:41;102046.03;;;6.76;100.00
54546;BME280;40444;45.184;9.850;2023-02-03T09:33:10;102034.56;;;6.92;100.00
54546;BME280;40444;45.184;9.850;2023-02-03T09:35:38;102031.38;;;7.02;100.00
54546;BME280;40444;45.184;9.850;2023-02-03T09:38:07;102028.00;;;6.99;100.00
54546;BME280;40444;45.184;9.850;2023-02-03T09:40:37;102034.56;;;7.09;100.00
54546;BME280;40444;45.184;9.850;2023-02-03T09:46:11;102050.50;;;7.28;100.00
54546;BME280;40444;45.184;9.850;2023-02-03T09:48:47;102053.66;;;7.52;100.00
54546;BME280;40444;45.184;9.850;2023-02-03T09:51:28;102057.00;;;7.55;100.00
54546;BME280;40444;45.184;9.850;2023-02-03T09:54:41;102060.06;;;7.81;100.00
54546;BME280;40444;45.184;9.850;2023-02-03T09:57:02;102061.72;;;7.99;100.00
54546;BME280;40444;45.184;9.850;2023-02-03T09:59:34;102057.84;;;8.05;100.00
54546;BME280;40444;45.184;9.850;2023-02-03T17:00:31;101573.13;;;8.29;100.00
54546;BME280;40444;45.184;9.850;2023-02-03T17:03:03;101560.94;;;8.40;100.00
54546;BME280;40444;45.184;9.850;2023-02-03T17:05:39;101568.81;;;8.55;100.00
54546;BME280;40444;45.184;9.850;2023-02-03T17:08:07;101559.78;;;8.71;100.00
54546;BME280;40444;45.184;9.850;2023-02-03T17:10:37;101570.28;;;8.86;100.00
54546;BME280;40444;45.184;9.850;2023-02-03T17:13:07;101561.84;;;8.93;100.00
54546;BME280;40444;45.184;9.850;2023-02-03T17:15:43;101552.66;;;8.97;100.00
54546;BME280;40444;45.184;9.850;2023-02-03T17:18:15;101548.75;;;9.02;100.00
54546;BME280;40444;45.184;9.850;2023-02-03T17:20:45;101558.28;;;9.06;100.00
54546;BME280;40444;45.184;9.850;2023-02-03T17:23:14;101549.38;;;9.06;100.00
54546;BME280;40444;45.184;9.850;2023-02-03T17:25:48;101553.88;;;9.05;100.00
54546;BME280;40444;45.184;9.850;2023-02-03T17:28:16;101551.31;;;9.04;100.00
54546;BME280;40444;45.184;9.850;2023-02-03T17:30:55;101544.56;;;8.98;100.00
54546;BME280;40444;45.184;9.850;2023-02-03T17:33:24;101541.66;;;8.89;100.00
54546;BME280;40444;45.184;9.850;2023-02-03T17:36:08;101542.06;;;8.82;100.00
54546;BME280;40444;45.184;9.850;2023-02-03T17:39:00;101549.53;;;8.77;100.00
54546;BME280;40444;45.184;9.850;2023-02-03T17:41:45;101554.75;;;8.66;100.00
54546;BME280;40444;45.184;9.850;2023-02-03T17:44:32;101560.97;;;8.52;100.00
54546;BME280;40444;45.184;9.850;2023-02-03T17:47:18;101562.78;;;8.52;100.00
54546;BME280;40444;45.184;9.850;2023-02-03T17:50:03;101558.75;;;8.32;100.00
54546;BME280;40444;45.184;9.850;2023-02-03T17:52:49;101558.25;;;8.25;100.00
54546;BME280;40444;45.184;9.850;2023-02-03T17:55:31;101555.88;;;8.21;100.00
54546;BME280;40444;45.184;9.850;2023-02-03T17:58:00;101549.50;;;8.23;100.00
54546;BME280;40444;45.184;9.850;2023-02-03T18:00:29;101548.34;;;8.27;100.00
54546;BME280;40444;45.184;9.850;2023-02-03T18:02:58;101541.94;;;8.30;100.00
54546;BME280;40444;45.184;9.850;2023-02-03T18:05:26;101546.53;;;8.28;100.00
54546;BME280;40444;45.184;9.850;2023-02-03T18:07:55;101548.66;;;8.23;100.00
54546;BME280;40444;45.184;9.850;2023-02-03T18:10:32;101554.38;;;8.17;100.00
54546;BME280;40444;45.184;9.850;2023-02-03T18:13:01;101550.41;;;8.09;100.00
54546;BME280;40444;45.184;9.850;2023-02-03T18:15:29;101545.84;;;7.97;100.00
54546;BME280;40444;45.184;9.850;2023-02-03T18:18:00;101553.69;;;7.86;100.00
54546;BME280;40444;45.184;9.850;2023-02-03T18:20:28;101548.25;;;7.73;100.00
54546;BME280;40444;45.184;9.850;2023-02-03T18:22:56;101555.88;;;7.65;100.00
54546;BME280;40444;45.184;9.850;2023-02-03T18:25:25;101554.44;;;7.59;100.00
54546;BME280;40444;45.184;9.850;2023-02-03T18:27:54;101553.84;;;7.54;100.00
54546;BME280;40444;45.184;9.850;2023-02-03T18:30:23;101546.13;;;7.50;100.00
54546;BME280;40444;45.184;9.850;2023-02-03T18:32:51;101560.72;;;7.44;100.00
54546;BME280;40444;45.184;9.850;2023-02-03T18:35:20;101559.97;;;7.42;100.00
54546;BME280;40444;45.184;9.850;2023-02-03T18:37:48;101557.94;;;7.31;100.00
54546;BME280;40444;45.184;9.850;2023-02-03T18:40:18;101541.47;;;7.25;100.00
54546;BME280;40444;45.184;9.850;2023-02-03T18:42:47;101546.22;;;7.20;100.00
54546;BME280;40444;45.184;9.850;2023-02-03T18:45:16;101546.41;;;7.17;100.00
54546;BME280;40444;45.184;9.850;2023-02-03T18:47:44;101548.03;;;7.19;100.00
54546;BME280;40444;45.184;9.850;2023-02-03T18:50:13;101545.09;;;7.24;100.00
54546;BME280;40444;45.184;9.850;2023-02-03T18:52:41;101534.31;;;7.25;100.00
54546;BME280;40444;45.184;9.850;2023-02-03T18:55:10;101530.28;;;7.18;100.00
54546;BME280;40444;45.184;9.850;2023-02-03T18:57:40;101526.72;;;7.19;100.00
54546;BME280;40444;45.184;9.850;2023-02-03T19:00:09;101530.09;;;7.07;100.00
54546;BME280;40444;45.184;9.850;2023-02-03T19:02:37;101531.72;;;7.09;100.00
54546;BME280;40444;45.184;9.850;2023-02-03T19:05:06;101536.75;;;7.14;100.00
54546;BME280;40444;45.184;9.850;2023-02-03T19:07:38;101540.50;;;7.12;100.00
54546;BME280;40444;45.184;9.850;2023-02-03T19:10:08;101530.69;;;7.12;100.00
54546;BME280;40444;45.184;9.850;2023-02-03T19:12:36;101527.06;;;7.13;100.00
54546;BME280;40444;45.184;9.850;2023-02-03T19:15:05;101539.97;;;7.05;100.00
54546;BME280;40444;45.184;9.850;2023-02-03T19:17:37;101548.94;;;7.04;100.00
54546;BME280;40444;45.184;9.850;2023-02-03T19:20:06;101543.69;;;7.02;100.00
54546;BME280;40444;45.184;9.850;2023-02-03T19:22:34;101554.38;;;7.02;100.00
54546;BME280;40444;45.184;9.850;2023-02-03T19:25:02;101549.78;;;7.04;100.00
54546;BME280;40444;45.184;9.850;2023-02-03T19:27:31;101533.72;;;7.06;100.00
54546;BME280;40444;45.184;9.850;2023-02-03T19:30:00;101522.44;;;7.01;100.00
54546;BME280;40444;45.184;9.850;2023-02-03T19:32:28;101525.22;;;6.99;100.00
54546;BME280;40444;45.184;9.850;2023-02-03T19:34:58;101516.47;;;6.97;100.00
54546;BME280;40444;45.184;9.850;2023-02-03T19:37:27;101510.47;;;6.94;100.00
54546;BME280;40444;45.184;9.850;2023-02-03T19:39:55;101511.59;;;6.90;100.00
54546;BME280;40444;45.184;9.850;2023-02-03T19:42:24;101494.94;;;6.86;100.00
54546;BME280;40444;45.184;9.850;2023-02-03T19:44:52;101507.94;;;6.76;100.00
54546;BME280;40444;45.184;9.850;2023-02-03T19:47:20;101497.75;;;6.69;100.00
54546;BME280;40444;45.184;9.850;2023-02-03T19:49:49;101490.88;;;6.65;100.00
54546;BME280;40444;45.184;9.850;2023-02-03T19:52:17;101495.72;;;6.58;100.00
54546;BME280;40444;45.184;9.850;2023-02-03T19:54:45;101486.19;;;6.54;100.00
54546;BME280;40444;45.184;9.850;2023-02-03T19:57:14;101478.38;;;6.51;100.00
54546;BME280;40444;45.184;9.850;2023-02-03T19:59:42;101476.78;;;6.48;100.00
54546;BME280;40444;45.184;9.850;2023-02-03T20:02:11;101474.28;;;6.45;100.00
54546;BME280;40444;45.184;9.850;2023-02-03T20:04:41;101463.03;;;6.40;100.00
54546;BME280;40444;45.184;9.850;2023-02-03T20:07:11;101457.97;;;6.36;100.00
54546;BME280;40444;45.184;9.850;2023-02-03T20:09:40;101458.94;;;6.35;100.00
54546;BME280;40444;45.184;9.850;2023-02-03T20:12:08;101456.28;;;6.35;100.00
54546;BME280;40444;45.184;9.850;2023-02-03T20:14:37;101454.75;;;6.30;100.00
54546;BME280;40444;45.184;9.850;2023-02-03T20:17:05;101456.72;;;6.27;100.00
54546;BME280;40444;45.184;9.850;2023-02-03T20:19:34;101449.16;;;6.19;100.00
54546;BME280;40444;45.184;9.850;2023-02-03T20:22:03;101455.81;;;6.12;100.00
54546;BME280;40444;45.184;9.850;2023-02-03T20:24:31;101445.59;;;6.04;100.00
54546;BME280;40444;45.184;9.850;2023-02-03T20:27:00;101458.56;;;5.95;100.00
54546;BME280;40444;45.184;9.850;2023-02-03T20:29:28;101451.06;;;5.86;100.00
54546;BME280;40444;45.184;9.850;2023-02-03T20:31:57;101438.09;;;5.79;100.00
54546;BME280;40444;45.184;9.850;2023-02-03T20:34:25;101433.91;;;5.75;100.00